Time;durP1;ratioP1;P1;durP2;ratioP2;P2;SDS_P1;SDS_P2;PMS_P1;PMS_P2;Temp;Humidity;BMP_temperature;BMP_pressure;BME280_temperature;BME280_humidity;BME280_pressure;Samples;Min_cycle;Max_cycle;Signal;HPM_P1;HPM_P2
2023/02/15 00:01:08;;;;;;;68.20;21.02;;;6.70;94.30;;;;;;5059982;28;20034;-55
2023/02/15 00:03:33;;;;;;;65.30;21.02;;;6.70;94.30;;;;;;5044471;28;20089;-55
2023/02/15 00:05:59;;;;;;;70.75;21.70;;;6.70;94.30;;;;;;5060111;28;20029;-55
2023/02/15 00:08:24;;;;;;;59.13;20.13;;;6.60;94.50;;;;;;5043590;28;20033;-55
2023/02/15 00:10:50;;;;;;;64.10;20.40;;;6.60;94.30;;;;;;5060478;28;20420;-56
2023/02/15 00:13:15;;;;;;;70.72;22.05;;;6.60;94.20;;;;;;5059795;28;20046;-55
2023/02/15 00:15:41;;;;;;;55.38;21.35;;;6.60;94.30;;;;;;5059864;28;20031;-55
2023/02/15 00:18:06;;;;;;;74.50;22.27;;;6.60;94.30;;;;;;5026521;28;20041;-56
2023/02/15 00:20:32;;;;;;;72.07;20.38;;;6.60;94.30;;;;;;5059570;28;20041;-55
2023/02/15 00:22:58;;;;;;;63.33;20.50;;;6.60;94.30;;;;;;5059619;28;20033;-56
2023/02/15 00:25:24;;;;;;;59.42;20.38;;;6.50;94.30;;;;;;5042746;28;20104;-55
2023/02/15 00:27:49;;;;;;;57.40;19.77;;;6.50;94.40;;;;;;5044179;28;20316;-55
2023/02/15 00:30:15;;;;;;;66.25;19.80;;;6.50;94.30;;;;;;5042930;28;20041;-55
2023/02/15 00:32:40;;;;;;;60.88;20.23;;;6.50;94.40;;;;;;5042622;28;20032;-55
2023/02/15 00:35:07;;;;;;;63.65;19.10;;;6.50;94.30;;;;;;5042956;28;20094;-54
2023/02/15 00:37:32;;;;;;;59.67;19.42;;;6.50;94.30;;;;;;5059352;28;20096;-55
2023/02/15 00:39:58;;;;;;;47.63;20.27;;;6.50;94.40;;;;;;5059386;28;20071;-55
2023/02/15 00:42:23;;;;;;;65.88;20.30;;;6.50;94.30;;;;;;5044038;28;20048;-55
2023/02/15 00:44:49;;;;;;;51.75;20.48;;;6.50;94.40;;;;;;5044273;28;20036;-55
2023/02/15 00:47:14;;;;;;;54.40;19.45;;;6.40;94.40;;;;;;5043972;28;20053;-56
2023/02/15 00:49:40;;;;;;;58.97;20.27;;;6.50;94.40;;;;;;5044227;28;20029;-55
2023/02/15 00:52:05;;;;;;;51.55;19.70;;;6.40;94.40;;;;;;5044051;28;20025;-55
2023/02/15 00:54:31;;;;;;;52.20;20.15;;;6.40;94.40;;;;;;5059331;28;20223;-56
2023/02/15 00:56:56;;;;;;;56.83;21.35;;;6.40;94.40;;;;;;5047013;28;20045;-55
2023/02/15 00:59:22;;;;;;;60.75;20.33;;;6.40;94.40;;;;;;5062693;28;20128;-56
2023/02/15 01:01:47;;;;;;;51.95;20.25;;;6.40;94.40;;;;;;5047389;28;20072;-55
2023/02/15 01:04:13;;;;;;;54.22;19.50;;;6.40;94.40;;;;;;5046197;28;20033;-55
2023/02/15 01:06:39;;;;;;;54.80;21.38;;;6.40;94.40;;;;;;5062636;28;20040;-55
2023/02/15 01:09:04;;;;;;;52.60;20.27;;;6.40;94.30;;;;;;5047524;28;20487;-55
2023/02/15 01:11:30;;;;;;;48.30;20.50;;;6.40;94.30;;;;;;5062535;28;20343;-55
2023/02/15 01:13:56;;;;;;;55.50;20.55;;;6.40;94.30;;;;;;5047408;28;20049;-55
2023/02/15 01:16:22;;;;;;;53.53;19.70;;;6.40;94.40;;;;;;5062492;28;20049;-56
2023/02/15 01:18:48;;;;;;;42.85;19.85;;;6.30;94.30;;;;;;5045802;28;20158;-56
2023/02/15 01:21:18;;;;;;;49.00;18.92;;;6.30;94.30;;;;;;5047254;28;20144;-55
2023/02/15 01:23:43;;;;;;;43.40;18.45;;;6.30;94.40;;;;;;5047172;28;20053;-55
2023/02/15 01:26:09;;;;;;;47.63;17.83;;;6.30;94.40;;;;;;5062576;28;20422;-56
2023/02/15 01:28:35;;;;;;;45.38;19.38;;;6.30;94.40;;;;;;5046995;28;20029;-56
2023/02/15 01:31:05;;;;;;;45.67;18.60;;;6.30;94.40;;;;;;5062326;28;20445;-55
2023/02/15 01:33:31;;;;;;;37.03;17.67;;;6.30;94.40;;;;;;5029075;28;20041;-55
2023/02/15 01:35:57;;;;;;;46.05;19.83;;;6.30;94.40;;;;;;5047075;28;20441;-55
2023/02/15 01:38:23;;;;;;;42.92;18.23;;;6.20;94.40;;;;;;5062110;28;20033;-56
2023/02/15 01:40:52;;;;;;;44.67;17.92;;;6.20;94.40;;;;;;5046883;28;20040;-55
2023/02/15 01:43:18;;;;;;;41.88;18.77;;;6.20;94.40;;;;;;5062113;28;20051;-55
2023/02/15 01:45:46;;;;;;;40.05;17.88;;;6.20;94.70;;;;;;5062038;28;20109;-56
2023/02/15 01:48:22;;;;;;;42.83;18.73;;;6.20;94.40;;;;;;5045032;28;20048;-55
2023/02/15 01:50:59;;;;;;;47.20;19.92;;;6.20;94.40;;;;;;5028617;28;20088;-56
2023/02/15 01:53:26;;;;;;;48.15;19.20;;;6.20;94.40;;;;;;5061891;28;20040;-56
2023/02/15 01:56:01;;;;;;;38.38;17.48;;;6.20;94.40;;;;;;5061560;28;20026;-55
2023/02/15 01:58:28;;;;;;;42.50;18.02;;;6.20;94.40;;;;;;5062020;28;20038;-56
2023/02/15 02:00:54;;;;;;;35.63;17.58;;;6.20;94.40;;;;;;5028609;28;20029;-55
2023/02/15 02:03:46;;;;;;;48.67;18.52;;;6.20;94.50;;;;;;5045061;28;20125;-55
2023/02/15 02:06:11;;;;;;;33.50;17.83;;;6.20;94.40;;;;;;5045707;28;20033;-55
2023/02/15 02:08:37;;;;;;;38.67;19.15;;;6.10;94.40;;;;;;5044996;28;20041;-55
2023/02/15 02:11:09;;;;;;;48.95;19.55;;;6.20;94.40;;;;;;5044953;28;20018;-56
2023/02/15 02:13:35;;;;;;;44.35;17.65;;;6.20;94.40;;;;;;5060879;28;20026;-55
2023/02/15 02:16:11;;;;;;;37.10;19.02;;;6.10;94.40;;;;;;5061511;28;20030;-56
2023/02/15 02:18:42;;;;;;;37.97;18.33;;;6.10;94.40;;;;;;5044766;28;20033;-55
2023/02/15 02:21:24;;;;;;;37.40;17.48;;;6.10;94.40;;;;;;5046131;28;20048;-55
2023/02/15 02:23:55;;;;;;;38.15;17.05;;;6.10;94.40;;;;;;5059779;28;20045;-56
2023/02/15 02:26:39;;;;;;;42.65;18.50;;;6.10;94.40;;;;;;5045970;28;20029;-55
2023/02/15 02:29:42;;;;;;;39.33;17.45;;;6.10;94.40;;;;;;5061174;28;20052;-56
2023/02/15 02:32:21;;;;;;;43.72;18.65;;;6.10;94.40;;;;;;5045795;28;20446;-55
2023/02/15 02:34:55;;;;;;;35.90;17.05;;;6.10;94.40;;;;;;5060405;28;20021;-55
2023/02/15 02:37:51;;;;;;;37.95;17.27;;;6.10;94.40;;;;;;5044317;28;20038;-55
2023/02/15 02:40:26;;;;;;;30.60;17.20;;;6.10;94.40;;;;;;5028039;28;20378;-56
2023/02/15 02:43:21;;;;;;;36.95;16.92;;;6.10;94.40;;;;;;5044318;28;20048;-55
2023/02/15 02:45:58;;;;;;;29.73;16.27;;;6.10;94.40;;;;;;5044489;28;20033;-56
2023/02/15 02:48:25;;;;;;;32.13;16.92;;;6.10;94.40;;;;;;5043874;28;20446;-55
2023/02/15 02:50:51;;;;;;;31.58;17.35;;;6.10;94.40;;;;;;5044157;28;20025;-56
2023/02/15 02:53:16;;;;;;;32.15;15.68;;;6.10;94.40;;;;;;5060747;28;20056;-55
2023/02/15 02:55:48;;;;;;;27.70;16.02;;;6.10;94.40;;;;;;5060626;28;20018;-56
2023/02/15 02:58:16;;;;;;;31.65;17.13;;;6.00;94.40;;;;;;5044290;28;20075;-55
2023/02/15 03:01:15;;;;;;;31.30;16.52;;;6.00;94.40;;;;;;5060999;28;20021;-55
2023/02/15 03:03:45;;;;;;;24.30;15.95;;;6.00;94.40;;;;;;5027350;28;20033;-55
2023/02/15 03:06:17;;;;;;;27.13;14.93;;;6.00;94.40;;;;;;5043815;28;20029;-55
2023/02/15 03:08:45;;;;;;;28.02;15.70;;;6.00;94.40;;;;;;5027663;28;20040;-55
2023/02/15 03:11:10;;;;;;;33.28;15.20;;;6.00;94.40;;;;;;5043803;28;20076;-56
2023/02/15 03:13:36;;;;;;;30.85;16.45;;;5.90;94.40;;;;;;5043643;28;20038;-55
2023/02/15 03:18:52;;;;;;;28.08;14.73;;;5.90;94.40;;;;;;5043483;28;20056;-55
2023/02/15 03:21:25;;;;;;;26.20;15.07;;;5.90;94.40;;;;;;5027562;28;20437;-56
2023/02/15 03:24:06;;;;;;;32.65;14.95;;;6.00;94.50;;;;;;5059245;28;20037;-55
2023/02/15 03:26:32;;;;;;;33.72;14.93;;;5.90;94.40;;;;;;5043507;28;20107;-56
2023/02/15 03:28:58;;;;;;;27.05;14.80;;;5.90;94.50;;;;;;5043407;28;20473;-55
2023/02/15 03:31:24;;;;;;;27.73;14.95;;;5.90;94.40;;;;;;5043484;28;20021;-55
2023/02/15 03:33:54;;;;;;;28.02;14.95;;;5.90;94.40;;;;;;5043440;28;20053;-55
2023/02/15 03:36:44;;;;;;;26.02;16.10;;;5.90;94.40;;;;;;5043507;28;20336;-55
2023/02/15 03:39:22;;;;;;;35.10;15.60;;;5.90;94.40;;;;;;5044839;28;20037;-55
2023/02/15 03:41:56;;;;;;;25.77;15.30;;;5.90;94.40;;;;;;5059354;28;20025;-55
2023/02/15 03:44:28;;;;;;;31.35;14.93;;;5.80;94.40;;;;;;5059870;28;20043;-56
2023/02/15 03:47:13;;;;;;;25.88;14.52;;;5.80;94.40;;;;;;5026733;28;20025;-55
2023/02/15 03:49:57;;;;;;;23.50;14.35;;;5.80;94.40;;;;;;5043481;28;20037;-55
2023/02/15 03:52:23;;;;;;;25.05;14.98;;;5.80;94.40;;;;;;5026724;28;20035;-55
2023/02/15 03:54:49;;;;;;;23.17;14.48;;;5.80;94.40;;;;;;5043262;28;20122;-55
2023/02/15 04:03:26;;;;;;;22.42;14.25;;;5.70;94.50;;;;;;5057405;28;20036;-55
2023/02/15 04:05:51;;;;;;;26.40;15.18;;;5.70;94.40;;;;;;5057514;28;20089;-55
2023/02/15 04:08:17;;;;;;;26.95;14.63;;;5.70;94.40;;;;;;5059618;28;20029;-56
2023/02/15 04:10:55;;;;;;;26.20;12.88;;;5.70;94.40;;;;;;5044356;28;20116;-55
2023/02/15 04:13:30;;;;;;;21.95;13.55;;;5.70;94.40;;;;;;5058127;28;20026;-56
2023/02/15 04:16:04;;;;;;;17.85;12.73;;;5.70;94.40;;;;;;5042883;28;20025;-56
2023/02/15 04:26:47;;;;;;;24.30;12.95;;;5.80;95.10;;;;;;5057278;28;20060;-55
2023/02/15 04:29:14;;;;;;;19.25;13.05;;;5.80;95.20;;;;;;5044222;28;20085;-55
2023/02/15 04:31:39;;;;;;;28.88;13.98;;;5.70;95.60;;;;;;5046935;28;20030;-55
2023/02/15 04:34:05;;;;;;;23.20;14.18;;;5.70;95.40;;;;;;5048101;28;20036;-55
2023/02/15 04:36:30;;;;;;;34.55;16.13;;;5.70;95.40;;;;;;5048106;28;20139;-55
2023/02/15 04:38:56;;;;;;;32.95;16.23;;;5.80;95.40;;;;;;5063262;28;20493;-56
2023/02/15 04:41:21;;;;;;;37.38;16.08;;;5.70;95.30;;;;;;5048062;28;20072;-55
2023/02/15 04:43:47;;;;;;;36.08;15.70;;;5.70;95.20;;;;;;5063219;28;20454;-55
2023/02/15 04:46:12;;;;;;;41.53;16.25;;;5.80;95.10;;;;;;5063441;28;20343;-56
2023/02/15 04:48:38;;;;;;;34.95;15.27;;;5.70;95.10;;;;;;5046319;28;20374;-56
2023/02/15 04:51:07;;;;;;;25.10;14.30;;;5.70;95.10;;;;;;5063236;28;20028;-56
2023/02/15 04:53:33;;;;;;;23.67;14.57;;;5.70;95.00;;;;;;5046390;28;20136;-55
2023/02/15 04:55:58;;;;;;;23.98;13.77;;;5.70;95.00;;;;;;5062796;28;20378;-55
2023/02/15 04:58:24;;;;;;;32.38;14.15;;;5.70;94.90;;;;;;5046232;28;20034;-55
2023/02/15 05:00:50;;;;;;;24.88;14.13;;;5.70;94.90;;;;;;5063023;28;20110;-55
2023/02/15 05:03:15;;;;;;;25.13;14.85;;;5.70;94.90;;;;;;5047337;28;20037;-55
2023/02/15 05:05:41;;;;;;;32.42;15.27;;;5.70;94.90;;;;;;5047539;28;20032;-55
2023/02/15 05:08:06;;;;;;;25.50;15.23;;;5.70;94.80;;;;;;5062593;28;20061;-55
2023/02/15 05:10:32;;;;;;;20.88;13.30;;;5.70;94.80;;;;;;5045873;28;20025;-56
2023/02/15 05:12:57;;;;;;;29.13;14.20;;;5.70;94.70;;;;;;5062557;28;20030;-55
2023/02/15 05:15:23;;;;;;;27.80;13.48;;;5.60;94.70;;;;;;5047218;28;20049;-55
2023/02/15 05:17:48;;;;;;;29.52;14.38;;;5.70;94.70;;;;;;5047129;28;20026;-55
2023/02/15 05:20:14;;;;;;;29.50;14.52;;;5.70;94.70;;;;;;5045725;28;20025;-56
2023/02/15 05:22:40;;;;;;;33.22;13.50;;;5.60;94.70;;;;;;5046002;28;20092;-55
2023/02/15 05:30:35;;;;;;;38.25;14.80;;;5.60;94.70;;;;;;5047401;28;20140;-55
2023/02/15 05:33:01;;;;;;;26.55;14.70;;;5.60;94.60;;;;;;5045682;28;20021;-55
2023/02/15 05:35:27;;;;;;;28.77;13.93;;;5.60;94.80;;;;;;5062357;28;20022;-55
2023/02/15 05:37:53;;;;;;;26.23;12.93;;;5.60;95.00;;;;;;5046824;28;20435;-55
2023/02/15 05:40:18;;;;;;;25.30;13.98;;;5.60;95.00;;;;;;5046945;28;20030;-55
2023/02/15 05:42:44;;;;;;;25.52;12.63;;;5.60;95.00;;;;;;5045162;28;20036;-55
2023/02/15 05:45:09;;;;;;;29.30;13.65;;;5.60;94.90;;;;;;5062742;28;20033;-55
2023/02/15 05:47:35;;;;;;;28.63;13.27;;;5.60;94.90;;;;;;5062204;28;20034;-55
2023/02/15 05:50:00;;;;;;;25.08;13.65;;;5.60;94.90;;;;;;5046814;28;20032;-55
2023/02/15 05:52:26;;;;;;;29.17;13.93;;;5.60;94.90;;;;;;5061964;28;20025;-55
2023/02/15 05:54:51;;;;;;;33.03;13.15;;;5.60;95.00;;;;;;5061801;28;20021;-55
2023/02/15 05:57:17;;;;;;;29.73;13.48;;;5.60;95.00;;;;;;5045119;28;20037;-55
2023/02/15 05:59:42;;;;;;;25.88;12.05;;;5.60;95.00;;;;;;5046668;28;20029;-55
2023/02/15 06:02:08;;;;;;;25.02;13.25;;;5.60;95.00;;;;;;5046378;28;20104;-55
2023/02/15 06:04:34;;;;;;;23.77;13.13;;;5.60;95.00;;;;;;5046360;28;20030;-55
2023/02/15 06:06:59;;;;;;;20.75;12.52;;;5.60;95.00;;;;;;5046467;28;20029;-56
2023/02/15 06:09:25;;;;;;;25.02;13.30;;;5.50;95.00;;;;;;5046344;28;20033;-55
2023/02/15 06:11:50;;;;;;;19.63;12.90;;;5.50;95.00;;;;;;5061556;28;20351;-55
2023/02/15 06:14:16;;;;;;;32.65;13.50;;;5.60;95.10;;;;;;5046236;28;20029;-56
2023/02/15 06:16:42;;;;;;;28.45;13.40;;;5.50;95.10;;;;;;5044606;28;20051;-55
2023/02/15 06:19:07;;;;;;;29.20;13.27;;;5.50;95.10;;;;;;5061384;28;20052;-55
2023/02/15 06:21:33;;;;;;;27.02;13.25;;;5.50;95.10;;;;;;5046034;28;20033;-56
2023/02/15 06:23:58;;;;;;;22.77;12.77;;;5.50;95.10;;;;;;5046168;28;20044;-55
2023/02/15 06:26:24;;;;;;;24.30;12.98;;;5.50;95.10;;;;;;5045958;28;20033;-55
2023/02/15 06:28:49;;;;;;;24.30;13.55;;;5.50;95.10;;;;;;5061084;28;20090;-55
2023/02/15 06:31:15;;;;;;;21.90;13.48;;;5.50;95.10;;;;;;5027964;28;20032;-56
2023/02/15 06:33:40;;;;;;;23.02;12.82;;;5.50;95.10;;;;;;5061149;28;20040;-56
2023/02/15 06:36:06;;;;;;;28.05;13.50;;;5.40;95.00;;;;;;5061270;28;20028;-55
2023/02/15 06:38:32;;;;;;;20.17;12.32;;;5.40;95.00;;;;;;5045672;28;20089;-55
2023/02/15 06:40:57;;;;;;;18.10;11.65;;;5.50;95.00;;;;;;5044195;28;20029;-55
2023/02/15 06:43:23;;;;;;;22.63;12.50;;;5.40;95.00;;;;;;5045501;28;20033;-55
2023/02/15 06:45:48;;;;;;;33.97;12.93;;;5.40;95.00;;;;;;5060794;28;20036;-55
2023/02/15 06:48:14;;;;;;;23.35;13.02;;;5.40;95.00;;;;;;5043686;28;20042;-55
2023/02/15 06:50:39;;;;;;;21.67;12.00;;;5.40;95.00;;;;;;5045512;28;20089;-55
2023/02/15 06:53:05;;;;;;;19.20;12.27;;;5.40;95.00;;;;;;5059868;28;20032;-55
2023/02/15 06:55:30;;;;;;;22.90;12.18;;;5.40;95.00;;;;;;5045273;28;20020;-55
2023/02/15 06:57:56;;;;;;;18.63;11.10;;;5.40;95.00;;;;;;5045179;28;20044;-55
2023/02/15 07:00:23;;;;;;;23.42;11.57;;;5.40;95.00;;;;;;5045256;28;20107;-55
2023/02/15 07:02:57;;;;;;;21.65;12.23;;;5.30;94.90;;;;;;5060514;28;20033;-55
2023/02/15 07:05:24;;;;;;;15.15;10.63;;;5.30;94.90;;;;;;5047042;28;20049;-55
2023/02/15 07:07:49;;;;;;;21.20;11.27;;;5.40;94.90;;;;;;5059198;28;20037;-55
2023/02/15 07:10:15;;;;;;;19.75;12.23;;;5.40;94.90;;;;;;5043198;28;20070;-55
2023/02/15 07:12:41;;;;;;;22.67;12.05;;;5.40;94.90;;;;;;5042912;28;20041;-55
2023/02/15 07:15:08;;;;;;;19.17;11.75;;;5.30;94.90;;;;;;5058051;28;20025;-55
2023/02/15 07:17:34;;;;;;;20.13;12.32;;;5.30;94.90;;;;;;5041466;28;20060;-55
2023/02/15 07:20:00;;;;;;;21.17;11.07;;;5.30;94.90;;;;;;5042138;28;20037;-55
2023/02/15 07:22:25;;;;;;;22.98;11.15;;;5.30;94.80;;;;;;5058924;28;20037;-55
2023/02/15 07:24:54;;;;;;;18.70;11.13;;;5.30;94.80;;;;;;5058860;28;20033;-55
2023/02/15 07:27:20;;;;;;;21.40;11.98;;;5.30;94.80;;;;;;5044560;28;20041;-56
2023/02/15 07:29:45;;;;;;;18.48;11.55;;;5.30;94.90;;;;;;5044775;28;20030;-55
2023/02/15 07:32:11;;;;;;;16.92;11.82;;;5.30;94.90;;;;;;5044958;28;20017;-55
2023/02/15 07:34:36;;;;;;;20.17;11.65;;;5.30;94.90;;;;;;5044977;28;20017;-55
2023/02/15 07:37:02;;;;;;;16.67;11.57;;;5.30;94.80;;;;;;5059793;28;20051;-55
2023/02/15 07:39:27;;;;;;;14.80;11.60;;;5.30;95.10;;;;;;5044819;28;20022;-55
2023/02/15 07:41:53;;;;;;;17.55;11.73;;;5.30;94.80;;;;;;5043168;28;20155;-55
2023/02/15 07:44:19;;;;;;;18.88;11.00;;;5.20;94.80;;;;;;5044747;28;20033;-55
2023/02/15 07:46:44;;;;;;;22.45;11.77;;;5.30;94.80;;;;;;5044452;28;20036;-56
2023/02/15 07:49:10;;;;;;;22.23;11.50;;;5.30;94.80;;;;;;5059420;28;20069;-55
2023/02/15 07:51:35;;;;;;;22.27;12.35;;;5.30;94.80;;;;;;5044473;28;20036;-55
2023/02/15 07:54:01;;;;;;;20.50;11.75;;;5.30;94.80;;;;;;5059721;28;20026;-55
2023/02/15 07:56:26;;;;;;;20.13;11.85;;;5.30;94.70;;;;;;5043531;28;20492;-55
2023/02/15 07:58:52;;;;;;;26.00;11.65;;;5.30;94.70;;;;;;5059974;28;20049;-56
2023/02/15 08:01:26;;;;;;;18.27;11.73;;;5.30;94.70;;;;;;5044693;28;20096;-55
2023/02/15 08:03:52;;;;;;;23.88;12.48;;;5.30;95.00;;;;;;5059305;28;20493;-55
2023/02/15 08:06:18;;;;;;;20.05;11.57;;;5.30;94.70;;;;;;5063953;28;20022;-55
2023/02/15 08:08:43;;;;;;;24.17;12.13;;;5.30;94.70;;;;;;5063748;28;20044;-55
2023/02/15 08:13:59;;;;;;;23.63;11.07;;;5.30;94.70;;;;;;5048951;28;20044;-55
2023/02/15 08:16:47;;;;;;;19.33;11.95;;;5.30;94.70;;;;;;5063978;28;20035;-55
2023/02/15 08:19:19;;;;;;;23.08;11.48;;;5.30;94.60;;;;;;5047145;28;20051;-55
2023/02/15 08:21:46;;;;;;;21.98;11.15;;;5.30;94.60;;;;;;5047199;28;20033;-56
2023/02/15 08:24:13;;;;;;;16.90;11.95;;;5.30;94.50;;;;;;5047133;28;20037;-55
2023/02/15 08:26:38;;;;;;;22.65;11.82;;;5.30;94.50;;;;;;5063367;28;20025;-55
2023/02/15 08:29:04;;;;;;;31.85;13.48;;;5.30;94.50;;;;;;5063387;28;20048;-55
2023/02/15 08:31:30;;;;;;;25.90;11.90;;;5.40;94.60;;;;;;5048177;28;20025;-56
2023/02/15 08:33:56;;;;;;;27.60;12.02;;;5.30;94.50;;;;;;5063107;28;20037;-55
2023/02/15 08:36:23;;;;;;;17.33;10.93;;;5.30;94.50;;;;;;5048013;28;20024;-55
2023/02/15 08:38:48;;;;;;;20.60;11.30;;;5.30;94.40;;;;;;5048122;28;20036;-55
2023/02/15 08:41:24;;;;;;;17.70;11.05;;;5.40;94.40;;;;;;5048579;28;20049;-55
2023/02/15 08:43:53;;;;;;;18.77;11.50;;;5.30;94.40;;;;;;5063522;28;20048;-55
2023/02/15 08:46:19;;;;;;;18.17;11.10;;;5.40;94.40;;;;;;5063333;28;20049;-55
2023/02/15 08:48:45;;;;;;;18.67;11.32;;;5.30;94.40;;;;;;5062847;28;20037;-55
2023/02/15 08:51:14;;;;;;;18.30;11.60;;;5.30;94.40;;;;;;5046840;28;20035;-55
2023/02/15 08:53:40;;;;;;;18.13;10.85;;;5.30;94.40;;;;;;5048189;28;20036;-55
2023/02/15 08:56:06;;;;;;;20.42;10.93;;;5.30;94.40;;;;;;5063010;28;20041;-55
2023/02/15 08:58:32;;;;;;;21.02;11.68;;;5.40;94.40;;;;;;5046173;28;20033;-55
2023/02/15 09:00:57;;;;;;;24.90;11.73;;;5.40;94.40;;;;;;5063084;28;20030;-56
2023/02/15 09:03:23;;;;;;;18.48;11.60;;;5.40;94.40;;;;;;5047580;28;20389;-55
2023/02/15 09:05:49;;;;;;;16.75;11.10;;;5.40;94.40;;;;;;5062765;28;20026;-55
2023/02/15 09:08:14;;;;;;;17.95;11.73;;;5.40;94.40;;;;;;5045863;28;20030;-56
2023/02/15 09:10:40;;;;;;;23.25;11.45;;;5.40;94.40;;;;;;5046113;28;20125;-55
2023/02/15 09:13:06;;;;;;;20.45;12.18;;;5.40;94.40;;;;;;5062572;28;20045;-55
2023/02/15 09:15:31;;;;;;;16.77;11.55;;;5.40;94.30;;;;;;5062370;28;20014;-55
2023/02/15 09:18:01;;;;;;;21.85;10.85;;;5.40;94.30;;;;;;5046799;28;20037;-55
2023/02/15 09:20:27;;;;;;;18.05;11.20;;;5.40;94.30;;;;;;5062085;28;20037;-57
2023/02/15 09:22:54;;;;;;;16.45;11.43;;;5.40;94.30;;;;;;5062149;28;20048;-57
2023/02/15 09:25:19;;;;;;;17.20;11.35;;;5.50;94.30;;;;;;5062282;28;20104;-58
2023/02/15 09:27:45;;;;;;;17.13;10.65;;;5.40;94.30;;;;;;5062267;28;20030;-57
2023/02/15 09:30:13;;;;;;;23.05;12.00;;;5.50;94.30;;;;;;5045235;28;20033;-57
2023/02/15 09:32:38;;;;;;;20.38;11.50;;;5.50;94.40;;;;;;5050043;28;20027;-57
2023/02/15 09:35:04;;;;;;;18.38;11.32;;;5.50;94.30;;;;;;5061706;28;20036;-57
2023/02/15 09:37:32;;;;;;;21.10;11.77;;;5.50;94.30;;;;;;5034725;28;20026;-57
2023/02/15 09:39:58;;;;;;;17.05;10.55;;;5.60;94.30;;;;;;5037738;28;20056;-58
2023/02/15 09:42:46;;;;;;;20.23;12.20;;;5.60;94.30;;;;;;5026463;28;20049;-57
2023/02/15 09:45:33;;;;;;;19.80;11.43;;;5.60;94.20;;;;;;5009063;28;20026;-57
2023/02/15 09:48:18;;;;;;;19.00;12.02;;;5.60;94.20;;;;;;5026497;28;20053;-57
2023/02/15 09:51:01;;;;;;;25.10;12.65;;;5.60;94.10;;;;;;5038864;28;20041;-57
2023/02/15 09:53:39;;;;;;;36.97;12.95;;;5.70;94.10;;;;;;5046373;28;20030;-57
2023/02/15 09:56:29;;;;;;;31.90;11.68;;;5.70;94.10;;;;;;5044983;28;20101;-57
2023/02/15 09:59:14;;;;;;;23.92;13.77;;;5.70;94.00;;;;;;5043461;28;20030;-58
2023/02/15 10:01:50;;;;;;;16.67;11.80;;;5.80;94.00;;;;;;5026773;28;20034;-57
2023/02/15 10:04:31;;;;;;;30.90;12.18;;;5.80;94.00;;;;;;5024695;28;20034;-57
2023/02/15 10:07:06;;;;;;;23.98;12.05;;;5.80;94.00;;;;;;5024870;28;20370;-57
2023/02/15 10:09:50;;;;;;;27.43;12.30;;;5.80;94.00;;;;;;5025838;28;20037;-57
2023/02/15 10:12:40;;;;;;;20.30;12.70;;;5.90;94.00;;;;;;5063528;28;20159;-58
2023/02/15 10:15:38;;;;;;;27.48;12.27;;;5.90;94.00;;;;;;5043532;28;20312;-57
2023/02/15 10:18:04;;;;;;;26.30;12.85;;;5.90;93.90;;;;;;5040533;28;20441;-57
2023/02/15 10:20:39;;;;;;;57.13;15.82;;;5.90;94.00;;;;;;5036789;28;20052;-57
2023/02/15 10:23:38;;;;;;;39.42;14.38;;;6.00;94.00;;;;;;5038135;28;20434;-57
2023/02/15 10:26:03;;;;;;;29.25;12.75;;;6.00;94.00;;;;;;5026919;28;20058;-57
2023/02/15 10:28:58;;;;;;;39.83;13.00;;;6.00;93.90;;;;;;5034347;28;20087;-57
2023/02/15 10:31:23;;;;;;;34.88;14.35;;;6.00;93.80;;;;;;5044044;28;20450;-57
2023/02/15 10:34:06;;;;;;;40.42;14.00;;;6.10;93.90;;;;;;5045511;28;20083;-57
2023/02/15 10:37:04;;;;;;;34.05;15.40;;;6.10;93.80;;;;;;5027817;28;20038;-57
2023/02/15 10:39:32;;;;;;;55.25;15.20;;;6.10;93.90;;;;;;5026201;28;20392;-57
2023/02/15 10:42:37;;;;;;;55.67;15.70;;;6.10;93.90;;;;;;5030495;28;20021;-58
2023/02/15 10:45:28;;;;;;;51.30;15.48;;;6.10;93.80;;;;;;5039825;28;20022;-57
2023/02/15 10:47:56;;;;;;;49.60;15.75;;;6.20;93.90;;;;;;5041938;28;20095;-57
2023/02/15 10:50:41;;;;;;;59.30;15.45;;;6.20;93.90;;;;;;5045943;28;20032;-58
2023/02/15 10:53:15;;;;;;;54.33;15.85;;;6.20;93.90;;;;;;5026035;28;20045;-57
2023/02/15 10:55:59;;;;;;;49.15;15.13;;;6.20;94.00;;;;;;5052641;28;20029;-57
2023/02/15 10:58:25;;;;;;;50.75;16.73;;;6.20;94.10;;;;;;5042106;28;20041;-58
2023/02/15 11:01:19;;;;;;;59.30;16.30;;;6.30;94.00;;;;;;5033196;28;20025;-57
2023/02/15 11:03:48;;;;;;;39.78;16.33;;;6.30;94.00;;;;;;5036012;28;20379;-57
2023/02/15 11:06:14;;;;;;;40.63;15.77;;;6.30;94.00;;;;;;5035208;28;20167;-58
2023/02/15 11:08:44;;;;;;;39.83;15.70;;;6.30;94.00;;;;;;5054408;28;20068;-58
2023/02/15 11:11:15;;;;;;;47.85;17.75;;;6.30;94.00;;;;;;5024023;28;20084;-57
2023/02/15 11:13:46;;;;;;;47.00;16.88;;;6.30;94.00;;;;;;5036535;28;20094;-57
2023/02/15 11:16:17;;;;;;;63.95;17.65;;;6.30;94.10;;;;;;5048027;28;20030;-57
2023/02/15 11:19:08;;;;;;;61.28;17.60;;;6.30;94.10;;;;;;5026721;28;20084;-57
2023/02/15 11:21:45;;;;;;;46.97;16.40;;;6.30;94.20;;;;;;5043018;28;20206;-57
2023/02/15 11:24:18;;;;;;;64.68;17.67;;;6.30;94.20;;;;;;5029166;28;20053;-57
2023/02/15 11:26:50;;;;;;;58.72;17.75;;;6.30;94.30;;;;;;5025902;28;20022;-57
2023/02/15 11:29:40;;;;;;;73.93;19.08;;;6.30;94.30;;;;;;5036227;28;20033;-57
2023/02/15 11:32:21;;;;;;;38.25;18.48;;;6.30;94.30;;;;;;5041033;28;20037;-57
2023/02/15 11:35:10;;;;;;;60.22;17.83;;;6.30;94.30;;;;;;5025734;28;20382;-58
2023/02/15 11:38:14;;;;;;;52.60;17.23;;;6.30;94.30;;;;;;5025273;28;20053;-57
2023/02/15 11:40:57;;;;;;;49.10;16.83;;;6.30;94.40;;;;;;5054654;28;20025;-57
2023/02/15 11:43:59;;;;;;;55.25;18.27;;;6.30;94.40;;;;;;5048603;28;20036;-58
2023/02/15 11:46:24;;;;;;;51.40;17.85;;;6.30;94.40;;;;;;5048637;28;20045;-57
2023/02/15 11:48:50;;;;;;;56.70;17.80;;;6.30;94.40;;;;;;5030306;28;20049;-57
2023/02/15 11:51:21;;;;;;;40.25;16.90;;;6.30;94.40;;;;;;5040359;28;20045;-57
2023/02/15 11:53:46;;;;;;;61.00;19.48;;;6.40;94.50;;;;;;5041710;28;20018;-58
2023/02/15 11:56:16;;;;;;;50.70;18.48;;;6.40;94.50;;;;;;5036383;28;20431;-58
2023/02/15 11:59:02;;;;;;;57.75;18.40;;;6.40;94.60;;;;;;5040090;28;20108;-57
2023/02/15 12:01:40;;;;;;;;;;;6.40;94.60;;;;;;5049792;28;20030;-57
2023/02/15 12:04:16;;;;;;;44.28;18.75;;;6.40;94.50;;;;;;5040773;28;19913;-57
2023/02/15 12:06:46;;;;;;;66.35;19.75;;;6.40;94.60;;;;;;5037698;28;20038;-57
2023/02/15 12:09:44;;;;;;;77.90;19.35;;;6.40;94.60;;;;;;5041964;28;20033;-57
2023/02/15 12:12:26;;;;;;;52.38;19.80;;;6.40;94.70;;;;;;5030237;28;20025;-57
2023/02/15 12:14:53;;;;;;;55.00;18.67;;;6.40;94.70;;;;;;5042739;28;20034;-57
2023/02/15 12:17:24;;;;;;;69.57;19.05;;;6.40;94.70;;;;;;5026302;28;20025;-57
2023/02/15 12:19:52;;;;;;;76.15;20.35;;;6.50;94.70;;;;;;5042880;28;20030;-58
2023/02/15 12:22:26;;;;;;;61.00;19.98;;;6.50;94.70;;;;;;5042632;28;20025;-57
2023/02/15 12:24:54;;;;;;;55.88;19.98;;;6.40;94.80;;;;;;5026518;28;20064;-57
2023/02/15 12:27:25;;;;;;;60.95;19.45;;;6.40;94.70;;;;;;5026501;28;20029;-57
2023/02/15 12:30:17;;;;;;;40.70;18.02;;;6.50;94.60;;;;;;5025546;28;20092;-58
2023/02/15 12:32:52;;;;;;;66.18;19.52;;;6.50;94.60;;;;;;5033906;28;20068;-57
2023/02/15 12:35:32;;;;;;;62.80;20.35;;;6.50;94.50;;;;;;5026718;28;20116;-57
2023/02/15 12:38:09;;;;;;;54.08;19.50;;;6.50;94.50;;;;;;5043170;28;20052;-57
2023/02/15 12:40:35;;;;;;;52.83;18.05;;;6.50;94.50;;;;;;5042907;28;20033;-57
2023/02/15 12:43:08;;;;;;;52.58;18.65;;;6.60;94.60;;;;;;5026298;28;20093;-57
2023/02/15 12:45:34;;;;;;;40.88;19.10;;;6.60;94.50;;;;;;5009760;28;20029;-57
2023/02/15 12:48:14;;;;;;;38.53;19.10;;;6.60;94.50;;;;;;5023848;28;20485;-57
2023/02/15 12:50:47;;;;;;;48.65;19.08;;;6.60;94.50;;;;;;5040484;28;20112;-57
2023/02/15 12:53:23;;;;;;;39.92;18.85;;;6.60;94.50;;;;;;5044043;28;20113;-57
2023/02/15 12:55:59;;;;;;;46.50;17.92;;;6.60;94.40;;;;;;5060733;28;20028;-57
2023/02/15 12:58:26;;;;;;;50.53;18.48;;;6.70;94.40;;;;;;5043993;28;20085;-57
2023/02/15 13:01:11;;;;;;;37.17;17.90;;;6.70;94.70;;;;;;5045639;28;20065;-57
2023/02/15 13:03:39;;;;;;;56.20;20.25;;;6.70;94.40;;;;;;5047665;28;20030;-57
2023/02/15 13:06:07;;;;;;;44.05;18.63;;;6.70;94.40;;;;;;5029573;28;20064;-58
2023/02/15 13:08:34;;;;;;;47.03;20.50;;;6.70;94.40;;;;;;5029750;28;20056;-57
2023/02/15 13:11:03;;;;;;;44.95;19.13;;;6.70;94.50;;;;;;5013221;28;20033;-56
2023/02/15 13:13:30;;;;;;;43.53;19.42;;;6.80;94.50;;;;;;5045677;28;20113;-57
2023/02/15 13:15:59;;;;;;;58.53;20.67;;;6.70;94.40;;;;;;5029342;28;20035;-57
2023/02/15 13:18:38;;;;;;;43.60;18.50;;;6.80;94.50;;;;;;5013110;28;20067;-57
2023/02/15 13:21:20;;;;;;;98.65;22.65;;;6.80;94.50;;;;;;5029569;28;20099;-57